Time;durP1;ratioP1;P1;durP2;ratioP2;P2;SDS_P1;SDS_P2;PMS_P1;PMS_P2;Temp;Humidity;BMP_temperature;BMP_pressure;BME280_temperature;BME280_humidity;BME280_pressure;Samples;Min_cycle;Max_cycle;Signal;HPM_P1;HPM_P2
2023/01/21 00:01:47;;;;;;;11.02;6.43;;;;;;;-3.66;69.42;96987.31;6273314;22;20008;-86
2023/01/21 00:04:15;;;;;;;12.57;6.95;;;;;;;-3.71;69.30;96996.97;6273733;22;20000;-87
2023/01/21 00:06:46;;;;;;;14.23;6.93;;;;;;;-3.76;69.44;96990.38;6273538;22;20015;-86
2023/01/21 00:09:19;;;;;;;13.95;8.00;;;;;;;-3.79;69.59;96993.06;6273175;22;20000;-86
2023/01/21 00:11:47;;;;;;;12.88;7.10;;;;;;;-3.79;69.95;96995.63;6275220;22;20004;-87
2023/01/21 00:14:24;;;;;;;11.27;7.22;;;;;;;-3.74;71.12;96997.91;6275222;22;20023;-86
2023/01/21 00:16:57;;;;;;;13.73;7.75;;;;;;;-3.64;72.96;97004.16;6275580;22;20034;-86
2023/01/21 00:19:25;;;;;;;11.82;7.47;;;;;;;-3.59;70.99;97007.28;6275187;22;20004;-87
2023/01/21 00:21:58;;;;;;;10.52;6.75;;;;;;;-3.61;69.93;97005.72;6275666;22;20003;-86
2023/01/21 00:24:26;;;;;;;10.93;7.18;;;;;;;-3.61;70.02;97013.38;6275364;22;20004;-87
2023/01/21 00:26:56;;;;;;;14.15;6.60;;;;;;;-3.59;70.84;97007.28;6265984;22;20007;-76
2023/01/21 00:29:25;;;;;;;10.73;6.80;;;;;;;-3.55;70.40;97013.03;6215289;23;20348;-76
2023/01/21 00:31:52;;;;;;;11.30;7.63;;;;;;;-3.52;70.02;97010.31;6216564;23;20079;-77
2023/01/21 00:34:21;;;;;;;14.00;6.55;;;;;;;-3.53;69.31;97011.22;6216849;23;20028;-76
2023/01/21 00:36:49;;;;;;;16.02;8.95;;;;;;;-3.52;70.02;97000.09;6218050;23;20020;-77
2023/01/21 00:39:16;;;;;;;14.15;8.13;;;;;;;-3.50;70.04;97008.50;6245750;23;20031;-76
2023/01/21 00:41:44;;;;;;;15.80;8.70;;;;;;;-3.47;70.81;97010.91;6246931;23;20020;-76
2023/01/21 00:44:11;;;;;;;15.88;9.43;;;;;;;-3.44;70.62;97013.28;6246677;23;20024;-76
2023/01/21 00:46:39;;;;;;;18.17;11.05;;;;;;;-3.40;70.69;97017.28;6247357;23;20051;-77
2023/01/21 00:49:06;;;;;;;22.80;14.35;;;;;;;-3.40;70.53;97027.50;6245867;23;20024;-76
2023/01/21 00:51:35;;;;;;;25.27;13.80;;;;;;;-3.39;71.27;97021.50;6247357;23;20491;-76
2023/01/21 00:54:03;;;;;;;30.80;18.88;;;;;;;-3.35;71.43;97019.59;6247483;23;20103;-77
2023/01/21 00:56:30;;;;;;;25.65;15.40;;;;;;;-3.29;71.87;97018.44;6246840;23;20024;-77
2023/01/21 00:58:58;;;;;;;27.92;15.55;;;;;;;-3.26;72.06;97020.81;6245480;23;20348;-76
2023/01/21 01:01:29;;;;;;;27.98;15.65;;;;;;;-3.22;71.54;97025.66;6246855;23;20016;-76
2023/01/21 01:03:56;;;;;;;29.02;16.17;;;;;;;-3.20;72.58;97023.03;6246109;23;20024;-77
2023/01/21 01:06:24;;;;;;;33.45;17.52;;;;;;;-3.21;72.76;97029.03;6246912;23;20024;-76
2023/01/21 01:08:56;;;;;;;32.17;16.02;;;;;;;-3.23;72.52;97023.19;6245857;23;20347;-76
2023/01/21 01:11:25;;;;;;;23.33;14.35;;;;;;;-3.24;72.54;97026.66;6246459;23;20016;-76
2023/01/21 01:13:53;;;;;;;20.27;10.85;;;;;;;-3.23;72.24;97029.13;6246947;23;20066;-77
2023/01/21 01:16:22;;;;;;;16.65;10.43;;;;;;;-3.26;72.46;97034.38;6246600;23;20030;-77
2023/01/21 01:18:51;;;;;;;23.73;12.70;;;;;;;-3.27;72.49;97031.94;6245549;23;20020;-76
2023/01/21 01:21:21;;;;;;;21.92;10.88;;;;;;;-3.28;72.24;97035.38;6246040;23;20075;-76
2023/01/21 01:23:50;;;;;;;15.98;9.02;;;;;;;-3.27;72.81;97042.13;6246827;23;20032;-76
2023/01/21 01:26:21;;;;;;;15.38;9.27;;;;;;;-3.28;72.56;97036.22;6246423;23;20048;-76
2023/01/21 01:28:48;;;;;;;21.50;11.52;;;;;;;-3.35;71.00;97045.91;6245206;23;20016;-76
2023/01/21 01:31:17;;;;;;;19.30;11.63;;;;;;;-3.41;71.65;97043.72;6246349;23;20022;-76
2023/01/21 01:33:46;;;;;;;20.17;11.18;;;;;;;-3.40;72.56;97050.47;6246478;23;20027;-76
2023/01/21 01:36:15;;;;;;;16.10;10.35;;;;;;;-3.45;70.52;97049.91;6246475;23;20095;-77
2023/01/21 01:38:43;;;;;;;16.02;10.75;;;;;;;-3.46;72.37;97053.34;6245323;23;20039;-76
2023/01/21 01:41:15;;;;;;;16.48;9.80;;;;;;;-3.46;73.23;97053.34;6245760;23;20090;-76
2023/01/21 01:43:53;;;;;;;16.00;9.80;;;;;;;-3.49;73.87;97058.63;6246225;23;20024;-77
2023/01/21 01:46:22;;;;;;;12.82;7.38;;;;;;;-3.53;72.45;97047.75;6246286;23;20237;-76
2023/01/21 01:48:54;;;;;;;12.95;6.55;;;;;;;-3.60;70.42;97046.44;6245146;23;20024;-77
2023/01/21 01:51:33;;;;;;;11.90;6.70;;;;;;;-3.64;71.04;97046.69;6246340;23;20527;-76
2023/01/21 01:54:01;;;;;;;7.05;5.05;;;;;;;-3.73;70.14;97048.84;6245717;23;20027;-77
2023/01/21 01:56:30;;;;;;;8.40;4.90;;;;;;;-3.81;69.71;97050.16;6245303;23;20016;-76
2023/01/21 01:58:59;;;;;;;8.25;4.53;;;;;;;-3.86;69.06;97055.50;6244811;23;20031;-76
2023/01/21 02:01:26;;;;;;;9.95;5.68;;;;;;;-3.95;68.51;97053.44;6246052;23;20016;-77
2023/01/21 02:03:58;;;;;;;7.97;4.57;;;;;;;-4.06;68.42;97058.28;6259157;23;20024;-76
2023/01/21 02:06:26;;;;;;;8.00;4.75;;;;;;;-4.16;69.84;97048.53;6269059;23;20008;-76
2023/01/21 02:08:56;;;;;;;8.32;4.72;;;;;;;-4.19;71.43;97053.81;6249189;23;20115;-76
2023/01/21 02:11:24;;;;;;;6.28;4.35;;;;;;;-4.21;70.58;97058.16;6246018;23;20055;-76
2023/01/21 02:13:54;;;;;;;8.20;5.18;;;;;;;-4.24;69.46;97063.41;6246554;23;20103;-76
2023/01/21 02:16:49;;;;;;;6.60;4.35;;;;;;;-4.23;71.26;97062.50;6246073;23;20051;-76
2023/01/21 02:19:44;;;;;;;8.07;5.35;;;;;;;-4.13;72.05;97057.78;6245147;23;20027;-77
2023/01/21 02:22:20;;;;;;;10.35;5.50;;;;;;;-4.12;69.38;97064.50;6245666;23;20020;-76
2023/01/21 02:25:15;;;;;;;7.80;5.60;;;;;;;-4.16;68.76;97065.56;6245859;23;20020;-76
2023/01/21 02:27:49;;;;;;;12.50;6.90;;;;;;;-4.22;68.75;97064.16;6245481;23;20023;-76
2023/01/21 02:30:41;;;;;;;12.52;6.75;;;;;;;-4.22;68.85;97064.16;6245967;23;20446;-76
2023/01/21 02:33:39;;;;;;;11.80;5.75;;;;;;;-4.25;68.81;97064.31;6245715;23;20063;-76
2023/01/21 02:36:17;;;;;;;10.65;5.68;;;;;;;-4.26;70.35;97065.22;6245253;23;20460;-76
2023/01/21 02:38:53;;;;;;;10.27;5.95;;;;;;;-4.19;72.40;97069.09;6245013;23;20020;-78
2023/01/21 02:41:29;;;;;;;10.55;6.10;;;;;;;-4.07;71.46;97064.25;6246184;23;20067;-76
2023/01/21 02:44:06;;;;;;;11.77;7.07;;;;;;;-4.09;72.02;97066.06;6245707;23;20098;-77
2023/01/21 02:46:41;;;;;;;16.35;8.75;;;;;;;-4.07;73.86;97074.44;6245949;23;20020;-76
2023/01/21 02:49:18;;;;;;;15.43;8.15;;;;;;;-4.00;73.32;97073.22;6244963;23;20031;-76
2023/01/21 02:51:46;;;;;;;17.40;9.13;;;;;;;-3.98;71.59;97072.25;6245887;23;20087;-78
2023/01/21 02:54:16;;;;;;;19.70;10.68;;;;;;;-3.98;70.75;97077.34;6245859;23;20019;-77
2023/01/21 02:56:44;;;;;;;14.50;9.50;;;;;;;-3.99;71.14;97075.69;6245374;23;20047;-76
2023/01/21 02:59:12;;;;;;;16.73;9.63;;;;;;;-4.00;72.48;97074.06;6244761;23;20487;-77
2023/01/21 03:01:52;;;;;;;15.63;9.38;;;;;;;-3.97;72.10;97084.09;6245611;23;20103;-78
2023/01/21 03:04:48;;;;;;;16.33;9.15;;;;;;;-3.98;72.66;97081.59;6245634;23;20020;-77
2023/01/21 03:07:24;;;;;;;15.45;8.85;;;;;;;-3.98;71.92;97081.59;6245324;23;20020;-76
2023/01/21 03:09:54;;;;;;;18.20;10.95;;;;;;;-3.98;71.43;97086.72;6246454;23;20600;-76
2023/01/21 03:12:30;;;;;;;19.80;12.10;;;;;;;-4.04;71.66;97087.06;6246984;23;20452;-75
2023/01/21 03:17:53;;;;;;;21.10;12.90;;;;;;;-4.20;72.38;97090.38;6243986;23;20016;-77
2023/01/21 03:20:26;;;;;;;16.25;10.75;;;;;;;-4.14;74.20;97087.50;6245360;23;20528;-76
2023/01/21 03:22:56;;;;;;;;;;;;;;;-4.06;74.63;97088.84;6245919;23;20020;-77
2023/01/21 03:25:27;;;;;;;19.08;9.73;;;;;;;-4.12;70.93;97097.63;6245448;23;19916;-76
2023/01/21 03:27:56;;;;;;;16.98;10.63;;;;;;;-4.24;69.85;97091.44;6243691;23;20027;-76
2023/01/21 03:30:25;;;;;;;17.60;10.18;;;;;;;-4.36;69.84;97082.69;6245602;23;20051;-76
2023/01/21 03:32:55;;;;;;;18.50;11.10;;;;;;;-4.38;71.28;97093.84;6245045;23;20027;-77
2023/01/21 03:35:28;;;;;;;18.45;9.73;;;;;;;-4.37;71.22;97083.59;6245435;23;20024;-76
2023/01/21 03:38:00;;;;;;;17.42;9.60;;;;;;;-4.35;71.44;97083.53;6244420;23;20081;-77
2023/01/21 03:40:32;;;;;;;12.88;7.55;;;;;;;-4.38;69.95;97078.56;6245219;23;20020;-76
2023/01/21 03:43:00;;;;;;;13.48;8.30;;;;;;;-4.48;69.53;97083.31;6245145;23;20020;-77
2023/01/21 03:45:35;;;;;;;14.30;7.78;;;;;;;-4.45;72.13;97089.97;6244876;23;20693;-76
2023/01/21 03:48:11;;;;;;;10.90;7.07;;;;;;;-4.40;72.22;97090.56;6244257;23;20024;-76
2023/01/21 03:50:45;;;;;;;12.85;7.28;;;;;;;-4.37;72.24;97090.41;6244870;23;20024;-76
2023/01/21 03:53:13;;;;;;;15.07;8.73;;;;;;;-4.40;70.61;97090.56;6244837;23;20056;-76
2023/01/21 03:55:40;;;;;;;13.57;8.00;;;;;;;-4.43;71.38;97088.19;6245844;23;20026;-77
2023/01/21 03:58:08;;;;;;;15.63;10.07;;;;;;;-4.39;72.21;97087.94;6244011;23;20329;-76
2023/01/21 04:00:35;;;;;;;15.90;9.85;;;;;;;-4.34;73.29;97095.34;6245348;23;20020;-76
2023/01/21 04:03:03;;;;;;;20.15;10.38;;;;;;;-4.31;71.65;97092.63;6244924;23;20020;-77
2023/01/21 04:05:30;;;;;;;14.27;8.40;;;;;;;-4.35;69.74;97088.63;6244950;23;20020;-76
2023/01/21 04:07:59;;;;;;;12.85;8.63;;;;;;;-4.50;68.62;97092.75;6243449;23;20035;-76
2023/01/21 04:10:27;;;;;;;13.50;7.68;;;;;;;-4.63;68.72;97100.19;6245318;23;20337;-76
2023/01/21 04:12:54;;;;;;;12.57;7.10;;;;;;;-4.71;68.74;97099.72;6244979;23;20017;-76
2023/01/21 04:15:22;;;;;;;10.90;7.10;;;;;;;-4.78;68.86;97099.19;6245238;23;20020;-76
2023/01/21 04:17:49;;;;;;;14.55;8.02;;;;;;;-4.81;68.63;97104.44;6244076;23;20028;-76
2023/01/21 04:20:18;;;;;;;16.35;9.18;;;;;;;-4.85;68.71;97109.75;6244987;23;20028;-77
2023/01/21 04:22:46;;;;;;;17.70;8.52;;;;;;;-4.83;68.82;97105.41;6244650;23;20139;-76
2023/01/21 04:25:15;;;;;;;20.48;9.70;;;;;;;-4.77;70.40;97100.84;6244443;23;20024;-77
2023/01/21 04:27:43;;;;;;;21.05;10.27;;;;;;;-4.72;70.39;97104.88;6244384;23;20024;-76
2023/01/21 04:30:11;;;;;;;24.13;11.35;;;;;;;-4.70;70.71;97103.94;6244912;23;20413;-76
2023/01/21 04:32:38;;;;;;;23.60;10.88;;;;;;;-4.65;70.93;97101.97;6244518;23;20019;-77
2023/01/21 04:35:07;;;;;;;23.23;11.38;;;;;;;-4.54;70.67;97105.72;6244733;23;20020;-76
2023/01/21 04:37:34;;;;;;;25.83;11.80;;;;;;;-4.52;70.09;97102.19;6244879;23;20359;-76
2023/01/21 04:40:02;;;;;;;22.83;11.45;;;;;;;-4.54;70.05;97103.16;6243685;23;20020;-78
2023/01/21 04:42:31;;;;;;;26.55;11.18;;;;;;;-4.59;69.65;97106.75;6244847;23;20047;-76
2023/01/21 04:44:58;;;;;;;21.63;10.18;;;;;;;-4.64;69.79;97112.97;6244869;23;20027;-76
2023/01/21 04:47:26;;;;;;;22.55;10.40;;;;;;;-4.67;69.90;97118.22;6244999;23;20026;-76
2023/01/21 04:49:53;;;;;;;34.17;13.63;;;;;;;-4.67;70.01;97113.94;6243783;23;20035;-76
2023/01/21 04:52:21;;;;;;;25.75;13.68;;;;;;;-4.67;70.00;97113.13;6259431;23;20024;-76
2023/01/21 04:54:48;;;;;;;26.20;12.63;;;;;;;-4.67;70.19;97113.94;6259555;23;20539;-76
2023/01/21 04:57:16;;;;;;;27.73;13.73;;;;;;;-4.66;70.52;97115.56;6247543;23;20042;-76
2023/01/21 04:59:45;;;;;;;30.83;13.18;;;;;;;-4.68;70.48;97122.50;6245600;23;20476;-75
2023/01/21 05:02:12;;;;;;;23.27;12.13;;;;;;;-4.66;70.35;97119.84;6246786;23;20020;-76
2023/01/21 05:04:40;;;;;;;29.88;13.20;;;;;;;-4.69;70.32;97120.84;6246543;23;20460;-77
2023/01/21 05:07:08;;;;;;;29.98;12.98;;;;;;;-4.71;70.56;97122.63;6246154;23;20020;-76
2023/01/21 05:09:35;;;;;;;30.77;12.88;;;;;;;-4.73;70.54;97115.97;6245731;23;20050;-79
2023/01/21 05:12:03;;;;;;;26.95;12.88;;;;;;;-4.78;70.02;97126.38;6246877;23;20043;-76
2023/01/21 05:14:30;;;;;;;25.17;13.65;;;;;;;-4.81;70.90;97121.41;6246610;23;20024;-76
2023/01/21 05:16:59;;;;;;;31.17;14.00;;;;;;;-4.84;71.07;97127.47;6246696;23;20020;-76
2023/01/21 05:19:27;;;;;;;29.20;13.30;;;;;;;-4.82;71.04;97129.97;6245640;23;20493;-76
2023/01/21 05:21:54;;;;;;;28.45;13.85;;;;;;;-4.80;71.00;97125.63;6246325;23;20020;-76
2023/01/21 05:24:22;;;;;;;27.73;13.95;;;;;;;-4.76;71.18;97124.59;6246523;23;20080;-77
2023/01/21 05:26:49;;;;;;;30.13;13.43;;;;;;;-4.70;71.38;97131.09;6246193;23;20016;-77
2023/01/21 05:29:17;;;;;;;32.42;12.88;;;;;;;-4.65;71.96;97127.44;6245626;23;20024;-76
2023/01/21 05:31:44;;;;;;;28.45;14.02;;;;;;;-4.53;72.23;97130.25;6246480;23;20020;-76
2023/01/21 05:34:13;;;;;;;26.95;13.82;;;;;;;-4.41;72.69;97134.75;6246241;23;20104;-76
2023/01/21 05:36:41;;;;;;;35.45;14.13;;;;;;;-4.29;72.38;97123.94;6246201;23;20020;-76
2023/01/21 05:39:08;;;;;;;33.40;15.00;;;;;;;-4.22;71.60;97124.47;6245353;23;20385;-76
2023/01/21 05:41:36;;;;;;;31.05;14.80;;;;;;;-4.20;71.69;97125.22;6246253;23;20383;-76
2023/01/21 05:44:04;;;;;;;31.38;15.85;;;;;;;-4.12;72.04;97129.94;6246236;23;20024;-76
2023/01/21 05:46:31;;;;;;;32.90;15.52;;;;;;;-4.02;72.13;97119.19;6245826;23;20024;-76
2023/01/21 05:48:59;;;;;;;32.35;16.52;;;;;;;-3.93;71.91;97125.53;6245153;23;20020;-76
2023/01/21 05:51:27;;;;;;;28.83;14.05;;;;;;;-3.85;71.47;97128.50;6245997;23;20364;-78
2023/01/21 05:53:55;;;;;;;29.45;13.23;;;;;;;-3.81;71.65;97135.09;6246083;23;20048;-76
2023/01/21 05:56:22;;;;;;;32.25;14.20;;;;;;;-3.76;71.69;97132.28;6246419;23;20023;-75
2023/01/21 05:58:50;;;;;;;32.08;15.32;;;;;;;-3.67;72.34;97136.09;6245485;23;20126;-77
2023/01/21 06:01:18;;;;;;;28.85;14.13;;;;;;;-3.53;73.01;97136.19;6245745;23;20035;-76
2023/01/21 06:03:45;;;;;;;28.35;14.32;;;;;;;-3.40;72.89;97139.72;6246173;23;20024;-77
2023/01/21 06:06:13;;;;;;;31.50;14.93;;;;;;;-3.34;72.04;97138.59;6246132;23;20020;-76
2023/01/21 06:08:42;;;;;;;31.83;14.20;;;;;;;-3.35;71.47;97140.28;6244639;23;20020;-76
2023/01/21 06:11:09;;;;;;;26.48;14.70;;;;;;;-3.35;71.28;97147.94;6245762;23;20026;-77
2023/01/21 06:13:37;;;;;;;30.30;14.27;;;;;;;-3.31;71.75;97149.44;6245851;23;20460;-76
2023/01/21 06:16:05;;;;;;;38.85;16.67;;;;;;;-3.29;72.36;97151.91;6245958;23;20024;-76
2023/01/21 06:18:32;;;;;;;32.17;14.00;;;;;;;-3.27;72.92;97149.28;6245232;23;20095;-76
2023/01/21 06:21:00;;;;;;;37.03;15.40;;;;;;;-3.19;73.33;97158.19;6245360;23;20026;-76
2023/01/21 06:23:28;;;;;;;36.15;15.85;;;;;;;-3.08;74.26;97154.19;6245665;23;20020;-76
2023/01/21 06:26:00;;;;;;;37.20;16.75;;;;;;;-2.97;75.56;97162.94;6245948;23;20027;-76
2023/01/21 06:28:29;;;;;;;40.58;17.73;;;;;;;-2.88;74.52;97160.78;6244471;23;20070;-76
2023/01/21 06:30:56;;;;;;;39.08;16.35;;;;;;;-2.85;74.35;97160.59;6245383;23;20022;-76
2023/01/21 06:33:24;;;;;;;44.75;16.98;;;;;;;-2.78;74.73;97167.00;6245550;23;20218;-76
2023/01/21 06:35:51;;;;;;;36.20;16.83;;;;;;;-2.77;74.60;97161.00;6245655;23;20027;-76
2023/01/21 06:38:19;;;;;;;38.58;17.23;;;;;;;-2.72;74.61;97161.56;6244877;23;20103;-76
2023/01/21 06:40:46;;;;;;;39.70;16.42;;;;;;;-2.64;75.01;97167.06;6245496;23;20020;-76
2023/01/21 06:43:15;;;;;;;38.63;18.00;;;;;;;-2.57;74.89;97170.94;6245671;23;20016;-75
2023/01/21 06:45:43;;;;;;;43.50;18.13;;;;;;;-2.55;74.13;97174.22;6246018;23;20031;-76
2023/01/21 06:48:10;;;;;;;42.33;17.27;;;;;;;-2.55;74.64;97175.97;6244567;23;20030;-76
2023/01/21 06:50:38;;;;;;;39.80;17.80;;;;;;;-2.50;74.73;97182.44;6245379;23;20468;-76
2023/01/21 06:53:05;;;;;;;34.72;16.38;;;;;;;-2.46;75.42;97169.50;6245712;23;20026;-76
2023/01/21 06:55:33;;;;;;;40.67;17.42;;;;;;;-2.43;74.92;97180.34;6245453;23;20103;-76
2023/01/21 06:58:00;;;;;;;34.53;16.58;;;;;;;-2.38;75.18;97185.22;6244153;23;20031;-75
2023/01/21 07:00:29;;;;;;;43.83;17.38;;;;;;;-2.33;74.96;97184.03;6245355;23;20031;-75
2023/01/21 07:02:57;;;;;;;36.65;16.75;;;;;;;-2.31;74.96;97182.22;6245348;23;20024;-77
2023/01/21 07:05:26;;;;;;;35.42;17.50;;;;;;;-2.24;75.17;97182.69;6245656;23;20086;-77
2023/01/21 07:07:54;;;;;;;35.63;17.52;;;;;;;-2.19;74.58;97180.69;6243972;23;20055;-76
2023/01/21 07:10:21;;;;;;;37.78;18.50;;;;;;;-2.21;74.28;97179.94;6245053;23;20020;-76
2023/01/21 07:12:49;;;;;;;38.70;18.25;;;;;;;-2.20;74.83;97194.38;6245162;23;20468;-76
2023/01/21 07:15:17;;;;;;;39.67;17.33;;;;;;;-2.21;75.19;97186.81;6245537;23;20024;-76
2023/01/21 07:17:46;;;;;;;37.80;18.38;;;;;;;-2.21;75.59;97192.72;6244725;23;20360;-76
2023/01/21 07:20:14;;;;;;;37.97;17.40;;;;;;;-2.19;75.26;97193.47;6244644;23;20024;-76
2023/01/21 07:22:42;;;;;;;43.88;19.52;;;;;;;-2.17;75.07;97194.19;6245656;23;20183;-75
2023/01/21 07:25:10;;;;;;;47.88;20.75;;;;;;;-2.14;75.19;97198.34;6245235;23;20027;-76
2023/01/21 07:27:37;;;;;;;42.03;17.70;;;;;;;-2.11;75.56;97198.97;6244998;23;20023;-76
2023/01/21 07:30:06;;;;;;;46.15;19.02;;;;;;;-2.04;75.81;97196.88;6244796;23;20020;-76
2023/01/21 07:32:33;;;;;;;41.95;18.65;;;;;;;-1.97;75.73;97197.34;6245425;23;20024;-76
2023/01/21 07:35:02;;;;;;;37.83;18.05;;;;;;;-1.94;75.23;97195.44;6245465;23;20026;-76
2023/01/21 07:37:30;;;;;;;42.22;18.60;;;;;;;-1.90;75.51;97202.03;6245370;23;20027;-76
2023/01/21 07:39:57;;;;;;;38.15;17.38;;;;;;;-1.88;75.86;97204.47;6251330;23;20020;-77
2023/01/21 07:42:25;;;;;;;39.40;18.23;;;;;;;-1.88;75.64;97199.34;6258136;23;20098;-76
2023/01/21 07:44:53;;;;;;;38.55;17.90;;;;;;;-1.91;75.78;97207.22;6253161;23;20020;-77
2023/01/21 07:47:20;;;;;;;46.53;20.30;;;;;;;-1.88;76.53;97205.31;6246642;23;20026;-76
2023/01/21 07:49:48;;;;;;;38.58;18.85;;;;;;;-1.81;76.91;97205.78;6245434;23;20020;-76
2023/01/21 07:52:17;;;;;;;43.08;19.10;;;;;;;-1.78;76.79;97200.47;6246563;23;20028;-76
2023/01/21 07:54:45;;;;;;;39.05;17.75;;;;;;;-1.75;76.93;97196.91;6245858;23;20034;-77
2023/01/21 07:57:13;;;;;;;37.40;17.58;;;;;;;-1.68;77.34;97201.59;6245511;23;20027;-77
2023/01/21 07:59:40;;;;;;;36.90;18.10;;;;;;;-1.62;76.33;97194.44;6244954;23;20351;-77
2023/01/21 08:02:09;;;;;;;37.05;17.08;;;;;;;-1.63;75.45;97203.88;6245127;23;20055;-77
2023/01/21 08:04:37;;;;;;;38.30;17.33;;;;;;;-1.63;75.36;97197.94;6244629;23;20048;-76
2023/01/21 08:07:08;;;;;;;35.60;16.80;;;;;;;-1.61;75.73;97193.53;6244851;23;20526;-76
2023/01/21 08:09:40;;;;;;;37.78;17.63;;;;;;;-1.60;75.59;97200.28;6244477;23;20024;-77
2023/01/21 08:12:09;;;;;;;42.78;19.40;;;;;;;-1.59;75.44;97207.06;6244906;23;20441;-77
2023/01/21 08:14:37;;;;;;;39.80;18.60;;;;;;;-1.59;76.15;97201.97;6244956;23;20027;-77
2023/01/21 08:17:05;;;;;;;38.97;18.25;;;;;;;-1.58;75.79;97201.84;6244245;23;20495;-78
2023/01/21 08:19:32;;;;;;;40.67;18.98;;;;;;;-1.56;75.80;97204.31;6244213;23;20027;-78
2023/01/21 08:22:00;;;;;;;39.22;17.95;;;;;;;-1.55;75.79;97201.69;6244749;23;20024;-77
2023/01/21 08:24:27;;;;;;;35.65;18.23;;;;;;;-1.52;76.02;97196.38;6245344;23;20047;-77
2023/01/21 08:26:59;;;;;;;35.55;18.10;;;;;;;-1.47;76.42;97199.47;6244855;23;20070;-78
2023/01/21 08:29:27;;;;;;;44.70;19.25;;;;;;;-1.44;75.12;97208.72;6244368;23;20107;-77
2023/01/21 08:31:54;;;;;;;34.92;17.10;;;;;;;-1.45;75.01;97201.94;6246059;23;20026;-77
2023/01/21 08:34:22;;;;;;;35.70;18.58;;;;;;;-1.45;75.27;97201.94;6246711;23;20020;-77
2023/01/21 08:36:50;;;;;;;35.13;18.30;;;;;;;-1.44;75.09;97208.72;6247149;23;20406;-77
2023/01/21 08:39:17;;;;;;;37.95;17.38;;;;;;;-1.44;74.42;97208.72;6246352;23;20028;-78
2023/01/21 08:41:45;;;;;;;41.75;17.95;;;;;;;-1.42;73.86;97216.28;6246557;23;20395;-77
2023/01/21 08:44:14;;;;;;;38.33;18.02;;;;;;;-1.42;74.58;97214.56;6246617;23;20347;-77
2023/01/21 08:46:41;;;;;;;34.00;17.00;;;;;;;-1.37;74.68;97211.72;6246921;23;20103;-78
2023/01/21 08:49:09;;;;;;;33.33;17.13;;;;;;;-1.35;74.69;97217.56;6245704;23;20103;-80
2023/01/21 08:51:36;;;;;;;36.95;18.55;;;;;;;-1.33;74.11;97216.56;6246993;23;20024;-78
2023/01/21 08:54:04;;;;;;;34.72;17.88;;;;;;;-1.33;74.19;97214.00;6247254;23;20020;-78
2023/01/21 08:56:31;;;;;;;40.78;18.67;;;;;;;-1.28;75.00;97223.97;6246871;23;20482;-78
2023/01/21 08:59:01;;;;;;;36.03;18.80;;;;;;;-1.25;74.58;97222.03;6245996;23;20474;-78
2023/01/21 09:01:30;;;;;;;32.92;15.73;;;;;;;-1.22;74.82;97225.31;6246573;23;20012;-77
2023/01/21 09:03:59;;;;;;;35.15;17.98;;;;;;;-1.15;75.35;97224.03;6246889;23;20024;-78
2023/01/21 09:06:28;;;;;;;30.58;16.48;;;;;;;-1.10;75.40;97227.94;6246944;23;20043;-77
2023/01/21 09:08:57;;;;;;;34.83;18.17;;;;;;;-1.07;74.90;97226.97;6245738;23;20026;-79
2023/01/21 09:11:25;;;;;;;36.15;18.63;;;;;;;-1.07;74.77;97224.41;6247004;23;20020;-77
2023/01/21 09:13:52;;;;;;;37.53;18.67;;;;;;;-1.06;74.40;97229.41;6246964;23;20020;-76
2023/01/21 09:16:22;;;;;;;35.38;17.92;;;;;;;-1.01;74.80;97230.88;6246817;23;20031;-78
2023/01/21 09:18:51;;;;;;;38.83;19.58;;;;;;;-0.91;75.21;97234.50;6245902;23;20024;-78
2023/01/21 09:21:19;;;;;;;35.08;18.95;;;;;;;-0.87;75.07;97234.22;6246840;23;20410;-77
2023/01/21 09:23:46;;;;;;;35.35;18.85;;;;;;;-0.81;74.91;97234.75;6246588;23;20095;-78
2023/01/21 09:26:16;;;;;;;37.28;18.10;;;;;;;-0.80;74.88;97234.66;6246806;23;20016;-78
2023/01/21 09:28:45;;;;;;;36.67;18.45;;;;;;;-0.75;75.11;97236.94;6245104;23;20052;-78
2023/01/21 09:31:15;;;;;;;34.15;17.58;;;;;;;-0.74;74.84;97243.72;6246275;23;20043;-78
2023/01/21 09:33:46;;;;;;;34.05;18.02;;;;;;;-0.70;75.05;97240.88;6245962;23;20111;-77
2023/01/21 09:36:17;;;;;;;30.10;16.08;;;;;;;-0.63;75.04;97243.88;6246509;23;20022;-77
2023/01/21 09:38:47;;;;;;;33.85;18.30;;;;;;;-0.62;74.53;97248.06;6243952;23;20020;-77
2023/01/21 09:41:27;;;;;;;34.45;18.00;;;;;;;-0.63;73.54;97244.69;6241485;23;20024;-77
2023/01/21 09:44:02;;;;;;;31.73;17.67;;;;;;;-0.62;74.58;97248.88;6245738;23;20034;-77
2023/01/21 09:46:35;;;;;;;33.42;16.80;;;;;;;-0.60;74.82;97243.66;6246597;23;20026;-77
2023/01/21 09:49:06;;;;;;;33.67;17.42;;;;;;;-0.60;74.12;97238.53;6245190;23;20099;-77
2023/01/21 09:51:44;;;;;;;35.45;17.92;;;;;;;-0.63;73.32;97241.31;6245444;23;20022;-77
2023/01/21 09:54:19;;;;;;;34.78;17.95;;;;;;;-0.64;73.30;97235.34;6246093;23;20457;-77
2023/01/21 09:57:01;;;;;;;30.90;15.60;;;;;;;-0.64;73.18;97239.66;6246267;23;20020;-77
2023/01/21 09:59:42;;;;;;;28.20;16.08;;;;;;;-0.65;73.14;97238.84;6245191;23;20024;-77
2023/01/21 10:02:21;;;;;;;31.00;16.55;;;;;;;-0.65;72.68;97235.47;6246666;23;20364;-77
2023/01/21 10:04:59;;;;;;;31.95;15.63;;;;;;;-0.66;73.34;97236.34;6246237;23;20016;-77
2023/01/21 10:07:33;;;;;;;32.08;16.15;;;;;;;-0.67;73.79;97235.53;6245866;23;20052;-77
2023/01/21 10:10:13;;;;;;;25.75;15.05;;;;;;;-0.68;72.89;97233.06;6245203;23;20102;-77
2023/01/21 10:12:58;;;;;;;31.52;15.48;;;;;;;-0.70;72.60;97237.47;6246187;23;20524;-78
2023/01/21 10:15:49;;;;;;;27.85;14.77;;;;;;;-0.70;73.50;97240.03;6246714;23;20364;-78
2023/01/21 10:18:22;;;;;;;27.00;15.45;;;;;;;-0.68;73.56;97243.31;6244942;23;20024;-78
2023/01/21 10:20:54;;;;;;;30.08;15.95;;;;;;;-0.65;73.41;97243.13;6246813;23;20389;-77
2023/01/21 10:23:27;;;;;;;31.60;15.10;;;;;;;-0.67;72.77;97239.84;6246220;23;20024;-77
2023/01/21 10:25:55;;;;;;;;;;;;;;;-0.70;72.48;97234.91;6246933;23;20559;-78
2023/01/21 10:28:25;;;;;;;33.05;16.33;;;;;;;-0.77;72.61;97231.91;6249434;23;19915;-77
2023/01/21 10:30:54;;;;;;;30.13;15.63;;;;;;;-0.80;72.99;97228.72;6265357;23;20024;-76
2023/01/21 10:33:24;;;;;;;29.08;14.93;;;;;;;-0.81;73.13;97222.75;6259625;23;20078;-77
2023/01/21 10:36:19;;;;;;;27.95;15.63;;;;;;;-0.75;73.69;97227.50;6248061;23;20016;-78
2023/01/21 10:38:55;;;;;;;31.23;15.18;;;;;;;-0.69;73.44;97224.56;6245091;23;20042;-78
2023/01/21 10:41:44;;;;;;;28.17;15.23;;;;;;;-0.66;73.38;97226.09;6245800;23;20103;-78
2023/01/21 10:44:22;;;;;;;29.02;14.80;;;;;;;-0.64;72.96;97225.09;6245246;23;20020;-76
2023/01/21 10:46:57;;;;;;;32.65;15.82;;;;;;;-0.60;73.05;97219.78;6246000;23;20023;-77
2023/01/21 10:49:34;;;;;;;30.58;13.45;;;;;;;-0.58;72.94;97221.31;6244800;23;20055;-78
2023/01/21 10:52:06;;;;;;;27.00;14.23;;;;;;;-0.58;72.57;97218.78;6245826;23;20026;-76
2023/01/21 10:54:46;;;;;;;24.45;14.52;;;;;;;-0.58;72.37;97223.06;6245398;23;20392;-76
2023/01/21 10:57:31;;;;;;;27.15;14.57;;;;;;;-0.57;72.80;97225.53;6245394;23;20016;-76
2023/01/21 11:00:01;;;;;;;30.48;16.55;;;;;;;-0.57;72.93;97228.09;6244584;23;20020;-76
2023/01/21 11:02:31;;;;;;;27.25;13.43;;;;;;;-0.58;72.96;97229.03;6245069;23;20028;-76
2023/01/21 11:05:01;;;;;;;28.08;14.02;;;;;;;-0.56;72.85;97222.06;6245690;23;20445;-76
2023/01/21 11:07:34;;;;;;;26.23;13.32;;;;;;;-0.60;73.32;97215.47;6245431;23;20103;-76
2023/01/21 11:10:05;;;;;;;23.50;13.05;;;;;;;-0.58;73.31;97212.81;6244674;23;20095;-76
2023/01/21 11:12:33;;;;;;;22.88;13.30;;;;;;;-0.60;73.22;97220.59;6245596;23;20086;-76
2023/01/21 11:15:07;;;;;;;24.13;14.50;;;;;;;-0.57;73.60;97215.28;6245556;23;20027;-76
2023/01/21 11:17:36;;;;;;;27.27;13.60;;;;;;;-0.52;74.14;97223.50;6244818;23;20656;-77
2023/01/21 11:20:15;;;;;;;25.38;14.52;;;;;;;-0.48;74.21;97212.16;6244431;23;20031;-77
2023/01/21 11:22:45;;;;;;;24.63;13.32;;;;;;;-0.46;73.94;97212.88;6244976;23;20024;-76
2023/01/21 11:25:25;;;;;;;26.13;12.77;;;;;;;-0.42;74.41;97209.19;6245275;23;20030;-76
2023/01/21 11:27:53;;;;;;;24.15;13.30;;;;;;;-0.39;74.21;97212.47;6244133;23;20020;-76
2023/01/21 11:30:36;;;;;;;28.35;15.00;;;;;;;-0.36;75.63;97210.53;6245406;23;20020;-79
2023/01/21 11:33:25;;;;;;;30.38;14.25;;;;;;;-0.31;74.66;97208.47;6245209;23;20104;-80
2023/01/21 11:35:54;;;;;;;27.00;14.45;;;;;;;-0.27;74.36;97207.38;6224995;22;20024;-80
2023/01/21 11:38:40;;;;;;;25.30;14.60;;;;;;;-0.23;74.10;97208.00;6234204;23;20358;-79